createdAt,value
2018-07-23T00:01:44.807Z,17.00
2018-07-23T00:04:14.789Z,17.00
2018-07-23T00:06:44.551Z,16.80
2018-07-23T00:09:14.664Z,16.70
2018-07-23T00:11:44.721Z,16.60
2018-07-23T00:14:14.919Z,16.50
2018-07-23T00:16:44.909Z,16.50
2018-07-23T00:19:17.335Z,16.60
2018-07-23T00:21:50.030Z,16.60
2018-07-23T00:24:19.924Z,16.70
2018-07-23T00:26:49.920Z,16.50
2018-07-23T00:29:20.334Z,16.40
2018-07-23T00:31:50.491Z,16.30
2018-07-23T00:34:22.232Z,16.30
2018-07-23T00:36:53.200Z,16.10
2018-07-23T00:39:23.303Z,16.00
2018-07-23T00:41:54.417Z,15.90
2018-07-23T00:44:24.624Z,15.80
2018-07-23T00:49:25.049Z,15.80
2018-07-23T00:51:56.634Z,15.70
2018-07-23T00:57:02.721Z,15.60
2018-07-23T00:59:32.840Z,15.60
2018-07-23T01:02:03.197Z,15.50
2018-07-23T01:04:32.993Z,15.50
2018-07-23T01:07:03.101Z,15.60
2018-07-23T01:09:33.365Z,15.60
2018-07-23T01:12:03.931Z,15.60
2018-07-23T01:14:34.481Z,15.60
2018-07-23T01:17:04.147Z,15.50
2018-07-23T01:19:33.989Z,15.50
2018-07-23T01:22:05.211Z,15.50
2018-07-23T01:24:34.942Z,15.50
2018-07-23T01:27:04.823Z,15.50
2018-07-23T01:29:34.562Z,15.30
2018-07-23T01:32:04.271Z,15.30
2018-07-23T01:34:34.062Z,15.20
2018-07-23T01:37:08.142Z,15.10
2018-07-23T01:39:37.854Z,15.10
2018-07-23T01:42:07.617Z,15.00
2018-07-23T01:44:37.885Z,14.90
2018-07-23T01:47:12.683Z,14.90
2018-07-23T01:49:43.198Z,14.80
2018-07-23T01:52:13.436Z,14.80
2018-07-23T01:54:43.501Z,14.80
2018-07-23T01:57:13.914Z,14.90
2018-07-23T01:59:43.741Z,14.90
2018-07-23T02:02:14.624Z,14.90
2018-07-23T02:04:44.845Z,14.90
2018-07-23T02:07:14.687Z,14.80
2018-07-23T02:09:45.001Z,14.70
2018-07-23T02:12:14.656Z,14.70
2018-07-23T02:14:44.525Z,14.80
2018-07-23T02:17:14.373Z,14.80
2018-07-23T02:19:44.521Z,14.80
2018-07-23T02:22:14.471Z,14.80
2018-07-23T02:24:44.797Z,14.80
2018-07-23T02:27:14.597Z,14.80
2018-07-23T02:29:44.890Z,14.70
2018-07-23T02:32:15.361Z,14.60
2018-07-23T02:34:44.955Z,14.70
2018-07-23T02:37:21.593Z,14.60
2018-07-23T02:39:51.662Z,14.60
2018-07-23T02:42:22.302Z,14.70
2018-07-23T02:44:52.234Z,14.60
2018-07-23T02:47:32.560Z,14.40
2018-07-23T02:50:02.452Z,14.30
2018-07-23T02:52:32.906Z,14.30
2018-07-23T02:55:04.022Z,14.20
2018-07-23T02:57:33.800Z,14.20
2018-07-23T03:00:04.456Z,14.20
2018-07-23T03:02:34.266Z,14.20
2018-07-23T03:05:05.465Z,14.30
2018-07-23T03:07:35.321Z,14.40
2018-07-23T03:10:06.071Z,14.50
2018-07-23T03:12:36.135Z,14.60
2018-07-23T03:15:07.331Z,14.70
2018-07-23T03:17:37.052Z,14.90
2018-07-23T03:20:14.177Z,14.90
2018-07-23T03:22:44.395Z,14.80
2018-07-23T03:25:14.523Z,14.80
2018-07-23T03:27:44.593Z,14.80
2018-07-23T03:30:14.709Z,14.80
2018-07-23T03:32:44.480Z,14.80
2018-07-23T03:35:13.821Z,14.80
2018-07-23T03:37:43.665Z,14.90
2018-07-23T03:40:13.840Z,14.90
2018-07-23T03:42:44.062Z,14.90
2018-07-23T03:45:13.950Z,14.80
2018-07-23T03:47:43.528Z,14.90
2018-07-23T03:50:17.223Z,14.90
2018-07-23T03:52:47.279Z,14.80
2018-07-23T03:55:17.561Z,14.70
2018-07-23T03:57:47.425Z,14.90
2018-07-23T04:00:18.009Z,14.90
2018-07-23T04:02:47.817Z,14.80
2018-07-23T04:05:18.830Z,14.70
2018-07-23T04:07:49.172Z,14.60
2018-07-23T04:10:20.990Z,14.60
2018-07-23T04:12:51.690Z,14.70
2018-07-23T04:15:21.869Z,14.70
2018-07-23T04:17:58.720Z,14.80
2018-07-23T04:20:28.794Z,14.70
2018-07-23T04:22:59.366Z,14.60
2018-07-23T04:25:29.646Z,14.60
2018-07-23T04:27:59.622Z,14.70
2018-07-23T04:30:30.223Z,14.70
2018-07-23T04:33:00.208Z,14.80
2018-07-23T04:35:30.526Z,14.80
2018-07-23T04:38:00.435Z,14.80
2018-07-23T04:40:30.630Z,14.80
2018-07-23T04:43:00.345Z,14.90
2018-07-23T04:45:30.153Z,15.00
2018-07-23T04:47:59.841Z,15.10
2018-07-23T04:50:29.566Z,15.20
2018-07-23T04:52:59.529Z,15.30
2018-07-23T04:55:29.498Z,15.40
2018-07-23T04:58:00.080Z,15.40
2018-07-23T05:00:29.965Z,15.50
2018-07-23T05:02:59.809Z,15.60
2018-07-23T05:05:30.210Z,15.80
2018-07-23T05:08:00.329Z,15.90
2018-07-23T05:10:30.616Z,16.10
2018-07-23T05:13:00.126Z,16.20
2018-07-23T05:15:30.506Z,16.40
2018-07-23T05:18:00.080Z,16.60
2018-07-23T05:20:30.252Z,16.80
2018-07-23T05:23:00.138Z,17.00
2018-07-23T05:25:34.001Z,17.00
2018-07-23T05:28:05.024Z,17.20
2018-07-23T05:30:35.347Z,17.40
2018-07-23T05:33:05.234Z,17.60
2018-07-23T05:35:35.837Z,17.80
2018-07-23T05:38:05.447Z,18.00
2018-07-23T05:40:35.602Z,18.20
2018-07-23T05:43:05.554Z,18.40
2018-07-23T05:45:35.720Z,18.50
2018-07-23T05:48:05.666Z,18.80
2018-07-23T05:50:35.944Z,19.00
2018-07-23T05:53:05.728Z,19.30
2018-07-23T05:55:40.660Z,19.50
2018-07-23T05:58:11.059Z,19.70
2018-07-23T06:00:40.939Z,19.80
2018-07-23T06:03:10.679Z,19.90
2018-07-23T06:05:40.609Z,20.00
2018-07-23T06:08:11.065Z,20.00
2018-07-23T06:10:40.854Z,20.10
2018-07-23T06:13:14.249Z,20.10
2018-07-23T06:15:44.022Z,20.20
2018-07-23T06:18:13.649Z,20.40
2018-07-23T06:20:43.600Z,20.60
2018-07-23T06:23:14.288Z,20.70
2018-07-23T06:25:44.135Z,20.70
2018-07-23T06:28:13.690Z,20.80
2018-07-23T06:30:43.495Z,20.90
2018-07-23T06:33:13.521Z,21.00
2018-07-23T06:35:46.267Z,21.20
2018-07-23T06:38:16.026Z,21.40
2018-07-23T06:40:46.740Z,21.50
2018-07-23T06:43:16.438Z,21.70
2018-07-23T06:45:46.594Z,21.90
2018-07-23T06:48:16.467Z,22.00
2018-07-23T06:50:46.247Z,22.10
2018-07-23T06:53:16.204Z,22.40
2018-07-23T06:55:46.500Z,22.60
2018-07-23T06:58:16.083Z,23.10
2018-07-23T07:00:47.669Z,23.30
2018-07-23T07:03:17.558Z,23.50
2018-07-23T07:05:46.923Z,23.70
2018-07-23T07:08:16.817Z,23.80
2018-07-23T07:10:46.713Z,24.00
2018-07-23T07:13:16.150Z,24.20
2018-07-23T07:15:46.393Z,24.30
2018-07-23T07:18:16.202Z,24.50
2018-07-23T07:20:45.719Z,24.70
2018-07-23T07:23:15.856Z,24.80
2018-07-23T07:25:45.456Z,24.80
2018-07-23T07:28:18.802Z,24.90
2018-07-23T07:30:48.214Z,24.80
2018-07-23T07:33:17.716Z,24.80
2018-07-23T07:38:26.832Z,24.70
2018-07-23T07:40:56.420Z,24.60
2018-07-23T07:43:31.036Z,24.40
2018-07-23T07:46:01.312Z,24.20
2018-07-23T07:48:31.087Z,24.20
2018-07-23T07:51:00.613Z,24.20
2018-07-23T07:53:30.907Z,24.40
2018-07-23T07:56:01.267Z,24.50
2018-07-23T07:58:31.149Z,24.70
2018-07-23T08:01:00.922Z,25.20
2018-07-23T08:03:31.564Z,25.50
2018-07-23T08:06:01.708Z,25.80
2018-07-23T08:08:36.134Z,26.10
2018-07-23T08:11:06.073Z,26.40
2018-07-23T08:13:35.883Z,26.60
2018-07-23T08:16:05.413Z,26.70
2018-07-23T08:18:35.481Z,26.90
2018-07-23T08:21:04.948Z,27.20
2018-07-23T08:23:41.380Z,27.40
2018-07-23T08:26:11.266Z,27.40
2018-07-23T08:28:41.127Z,27.60
2018-07-23T08:31:10.412Z,27.90
2018-07-23T08:33:41.352Z,28.10
2018-07-23T08:36:11.030Z,28.30
2018-07-23T08:38:40.466Z,28.00
2018-07-23T08:41:10.125Z,27.80
2018-07-23T08:43:40.131Z,27.80
2018-07-23T08:46:09.648Z,28.10
2018-07-23T08:48:39.345Z,28.30
2018-07-23T08:51:09.386Z,28.20
2018-07-23T08:53:39.163Z,28.00
2018-07-23T08:56:10.331Z,27.70
2018-07-23T08:58:50.283Z,27.70
2018-07-23T09:01:20.005Z,27.70
2018-07-23T09:03:50.119Z,27.70
2018-07-23T09:06:20.165Z,27.50
2018-07-23T09:08:49.675Z,27.20
2018-07-23T09:11:21.236Z,27.10
2018-07-23T09:13:51.456Z,27.10
2018-07-23T09:16:20.992Z,27.30
2018-07-23T09:18:50.390Z,27.70
2018-07-23T09:21:20.087Z,27.80
2018-07-23T09:23:49.785Z,28.10
2018-07-23T09:28:59.220Z,29.10
2018-07-23T09:31:28.706Z,29.60
2018-07-23T09:34:00.830Z,30.00
2018-07-23T09:36:30.316Z,29.90
2018-07-23T09:39:00.423Z,29.60
2018-07-23T09:41:30.238Z,29.90
2018-07-23T09:44:00.461Z,30.30
2018-07-23T09:46:30.031Z,30.00
2018-07-23T09:48:59.930Z,30.30
2018-07-23T09:51:34.879Z,30.40
2018-07-23T09:54:04.360Z,30.30
2018-07-23T09:56:33.956Z,29.90
2018-07-23T09:59:03.579Z,29.90
2018-07-23T10:01:33.558Z,30.00
2018-07-23T10:04:13.719Z,30.30
2018-07-23T10:06:43.428Z,30.60
2018-07-23T10:09:13.595Z,31.00
2018-07-23T10:11:43.177Z,31.40
2018-07-23T10:14:12.890Z,31.90
2018-07-23T10:16:43.542Z,32.40
2018-07-23T10:19:13.607Z,31.90
2018-07-23T10:21:43.660Z,31.20
2018-07-23T10:24:13.304Z,30.90
2018-07-23T10:26:43.299Z,31.10
2018-07-23T10:29:12.837Z,31.00
2018-07-23T10:31:42.870Z,30.80
2018-07-23T10:34:12.771Z,30.80
2018-07-23T10:36:43.602Z,30.80
2018-07-23T10:39:13.088Z,31.20
2018-07-23T10:41:43.128Z,31.60
2018-07-23T10:44:12.558Z,31.60
2018-07-23T10:46:44.024Z,32.00
2018-07-23T10:49:13.635Z,32.50
2018-07-23T10:51:43.923Z,33.30
2018-07-23T10:54:13.709Z,33.90
2018-07-23T10:56:43.547Z,34.00
2018-07-23T10:59:13.045Z,34.70
2018-07-23T11:01:42.801Z,35.30
2018-07-23T11:04:12.006Z,35.30
2018-07-23T11:06:41.167Z,36.00
2018-07-23T11:09:12.031Z,36.40
2018-07-23T11:11:41.219Z,36.50
2018-07-23T11:14:10.939Z,37.00
2018-07-23T11:16:46.400Z,37.40
2018-07-23T11:19:15.539Z,37.30
2018-07-23T11:21:46.237Z,37.50
2018-07-23T11:24:15.355Z,37.30
2018-07-23T11:26:45.271Z,37.00
2018-07-23T11:29:15.027Z,35.70
2018-07-23T11:31:45.631Z,35.80
2018-07-23T11:34:15.561Z,36.10
2018-07-23T11:36:45.504Z,35.30
2018-07-23T11:39:15.483Z,34.00
2018-07-23T11:41:45.526Z,33.30
2018-07-23T11:44:15.424Z,33.30
2018-07-23T11:46:45.296Z,33.10
2018-07-23T11:49:19.530Z,32.70
2018-07-23T11:51:49.438Z,32.80
2018-07-23T11:54:19.031Z,33.50
2018-07-23T11:56:58.869Z,34.60
2018-07-23T11:59:28.482Z,35.60
2018-07-23T12:01:58.695Z,35.70
2018-07-23T12:04:27.837Z,36.00
2018-07-23T12:06:57.561Z,35.30
2018-07-23T12:09:26.736Z,35.30
2018-07-23T12:11:57.326Z,35.30
2018-07-23T12:14:26.571Z,34.60
2018-07-23T12:16:56.231Z,34.10
2018-07-23T12:19:26.573Z,34.30
2018-07-23T12:21:56.903Z,34.00
2018-07-23T12:24:26.577Z,34.30
2018-07-23T12:26:56.653Z,34.80
2018-07-23T12:29:25.799Z,35.60
2018-07-23T12:31:55.624Z,36.60
2018-07-23T12:34:25.255Z,37.50
2018-07-23T12:36:54.921Z,38.00
2018-07-23T12:39:23.957Z,38.40
2018-07-23T12:41:53.840Z,37.40
2018-07-23T12:44:23.103Z,37.20
2018-07-23T12:46:52.916Z,38.00
2018-07-23T12:49:22.624Z,38.70
2018-07-23T12:51:52.166Z,39.60
2018-07-23T12:54:21.617Z,39.20
2018-07-23T12:56:51.122Z,39.00
2018-07-23T12:59:20.272Z,39.40
2018-07-23T13:01:49.527Z,39.30
2018-07-23T13:04:19.381Z,40.40
2018-07-23T13:06:48.272Z,40.80
2018-07-23T13:09:17.429Z,41.10
2018-07-23T13:11:49.864Z,41.00
2018-07-23T13:14:19.214Z,40.30
2018-07-23T13:16:48.454Z,40.60
2018-07-23T13:19:18.508Z,40.40
2018-07-23T13:21:48.460Z,39.90
2018-07-23T13:24:17.968Z,39.30
2018-07-23T13:26:48.400Z,39.40
2018-07-23T13:29:17.720Z,39.90
2018-07-23T13:31:46.801Z,39.70
2018-07-23T13:34:16.280Z,39.10
2018-07-23T13:36:45.438Z,38.80
2018-07-23T13:39:15.452Z,38.90
2018-07-23T13:41:45.286Z,39.50
2018-07-23T13:44:14.602Z,40.30
2018-07-23T13:46:44.264Z,41.30
2018-07-23T13:49:14.127Z,42.00
2018-07-23T13:51:43.966Z,42.10
2018-07-23T13:54:14.787Z,41.90
2018-07-23T13:56:44.515Z,41.90
2018-07-23T13:59:16.451Z,41.60
2018-07-23T14:01:46.459Z,42.30
2018-07-23T14:04:16.279Z,42.50
2018-07-23T14:06:46.340Z,42.70
2018-07-23T14:09:16.121Z,42.40
2018-07-23T14:11:45.711Z,42.30
2018-07-23T14:14:15.932Z,42.20
2018-07-23T14:16:45.905Z,42.80
2018-07-23T14:19:15.489Z,43.30
2018-07-23T14:21:47.678Z,43.70
2018-07-23T14:24:18.327Z,43.20
2018-07-23T14:26:48.142Z,42.80
2018-07-23T14:29:18.106Z,42.90
2018-07-23T14:31:48.224Z,43.10
2018-07-23T14:34:18.715Z,42.70
2018-07-23T14:36:49.235Z,42.60
2018-07-23T14:39:19.193Z,42.70
2018-07-23T14:41:49.631Z,42.50
2018-07-23T14:44:20.090Z,41.50
2018-07-23T14:49:19.395Z,41.10
2018-07-23T14:51:49.539Z,42.00
2018-07-23T14:54:18.822Z,42.40
2018-07-23T14:56:48.344Z,42.80
2018-07-23T14:59:19.454Z,43.00
2018-07-23T15:01:48.814Z,43.20
2018-07-23T15:04:18.896Z,43.70
2018-07-23T15:06:48.828Z,44.10
2018-07-23T15:09:18.346Z,43.80
2018-07-23T15:11:48.410Z,42.50
2018-07-23T15:14:17.906Z,42.30
2018-07-23T15:16:47.842Z,42.80
2018-07-23T15:19:17.803Z,42.60
2018-07-23T15:21:48.198Z,42.40
2018-07-23T15:26:47.613Z,42.60
2018-07-23T15:29:26.031Z,43.00
2018-07-23T15:31:55.539Z,43.50
2018-07-23T15:34:25.548Z,43.90
2018-07-23T15:36:55.563Z,43.80
2018-07-23T15:39:25.409Z,42.30
2018-07-23T15:44:25.063Z,42.10
2018-07-23T15:46:54.423Z,42.40
2018-07-23T15:49:23.509Z,43.10
2018-07-23T15:51:53.360Z,43.70
2018-07-23T15:54:23.055Z,43.60
2018-07-23T15:56:52.481Z,43.40
2018-07-23T15:59:22.385Z,43.50
2018-07-23T16:01:52.335Z,42.50
2018-07-23T16:04:22.761Z,41.80
2018-07-23T16:06:52.667Z,42.20
2018-07-23T16:09:21.915Z,42.30
2018-07-23T16:11:52.086Z,42.80
2018-07-23T16:14:21.990Z,42.90
2018-07-23T16:16:51.853Z,42.70
2018-07-23T16:19:21.419Z,42.50
2018-07-23T16:24:20.234Z,42.50
2018-07-23T16:26:50.126Z,42.50
2018-07-23T16:29:19.570Z,42.00
2018-07-23T16:31:49.520Z,42.10
2018-07-23T16:34:19.363Z,42.20
2018-07-23T16:36:50.604Z,42.20
2018-07-23T16:39:20.948Z,42.40
2018-07-23T16:41:50.764Z,42.10
2018-07-23T16:44:20.579Z,42.20
2018-07-23T16:46:52.420Z,42.40
2018-07-23T16:49:22.571Z,42.50
2018-07-23T16:51:53.865Z,42.20
2018-07-23T16:54:22.835Z,41.80
2018-07-23T16:56:52.451Z,42.50
2018-07-23T16:59:22.303Z,42.90
2018-07-23T17:01:54.812Z,43.00
2018-07-23T17:04:24.614Z,43.10
2018-07-23T17:06:54.188Z,42.60
2018-07-23T17:09:24.014Z,42.50
2018-07-23T17:11:54.868Z,42.60
2018-07-23T17:14:24.256Z,42.30
2018-07-23T17:16:53.966Z,41.70
2018-07-23T17:19:23.867Z,41.40
2018-07-23T17:21:53.820Z,40.90
2018-07-23T17:24:23.720Z,40.60
2018-07-23T17:26:54.121Z,40.60
2018-07-23T17:29:23.573Z,40.40
2018-07-23T17:32:03.529Z,40.10
2018-07-23T17:34:33.601Z,40.00
2018-07-23T17:37:03.441Z,39.80
2018-07-23T17:39:34.167Z,39.90
2018-07-23T17:42:04.375Z,39.70
2018-07-23T17:44:34.742Z,38.80
2018-07-23T17:47:04.324Z,38.30
2018-07-23T17:49:35.371Z,38.50
2018-07-23T17:52:05.247Z,38.50
2018-07-23T17:54:35.668Z,37.90
2018-07-23T17:57:06.102Z,37.10
2018-07-23T17:59:36.260Z,36.40
2018-07-23T18:02:06.268Z,36.10
2018-07-23T18:04:36.664Z,35.50
2018-07-23T18:07:06.888Z,35.00
2018-07-23T18:09:37.246Z,34.50
2018-07-23T18:12:07.885Z,34.00
2018-07-23T18:14:37.991Z,33.70
2018-07-23T18:17:08.137Z,33.40
2018-07-23T18:19:39.581Z,33.00
2018-07-23T18:22:13.250Z,32.70
2018-07-23T18:24:44.686Z,32.50
2018-07-23T18:27:14.721Z,32.30
2018-07-23T18:29:44.652Z,32.10
2018-07-23T18:32:14.841Z,31.80
2018-07-23T18:34:49.598Z,31.70
2018-07-23T18:37:20.128Z,31.70
2018-07-23T18:39:50.345Z,31.50
2018-07-23T18:42:21.229Z,31.30
2018-07-23T18:44:51.086Z,31.00
2018-07-23T18:47:21.394Z,30.90
2018-07-23T18:49:57.992Z,30.70
2018-07-23T18:52:30.792Z,30.50
2018-07-23T18:55:01.901Z,30.40
2018-07-23T18:57:32.017Z,30.40
2018-07-23T19:00:02.227Z,30.20
2018-07-23T19:02:32.609Z,30.00
2018-07-23T19:05:03.084Z,29.90
2018-07-23T19:07:33.243Z,29.70
2018-07-23T19:10:03.127Z,29.50
2018-07-23T19:12:37.539Z,29.30
2018-07-23T19:17:37.944Z,28.80
2018-07-23T19:20:11.988Z,28.70
2018-07-23T19:22:41.883Z,28.40
2018-07-23T19:25:11.834Z,28.40
2018-07-23T19:27:41.924Z,28.10
2018-07-23T19:30:12.478Z,27.80
2018-07-23T19:32:42.350Z,27.50
2018-07-23T19:35:12.166Z,27.20
2018-07-23T19:37:42.312Z,27.00
2018-07-23T19:40:12.476Z,26.80
2018-07-23T19:42:42.212Z,26.80
2018-07-23T19:45:11.560Z,26.70
2018-07-23T19:47:42.267Z,26.40
2018-07-23T19:50:12.340Z,26.20
2018-07-23T19:52:42.236Z,26.00
2018-07-23T19:55:13.471Z,25.90
2018-07-23T19:57:49.532Z,25.70
2018-07-23T20:00:19.636Z,25.60
2018-07-23T20:02:50.654Z,25.60
2018-07-23T20:05:20.905Z,25.40
2018-07-23T20:07:52.127Z,25.20
2018-07-23T20:10:25.821Z,25.00
2018-07-23T20:12:56.198Z,24.80
2018-07-23T20:15:27.225Z,24.70
2018-07-23T20:17:57.364Z,24.50
2018-07-23T20:20:28.146Z,24.40
2018-07-23T20:22:58.730Z,24.30
2018-07-23T20:25:30.184Z,24.20
2018-07-23T20:28:00.915Z,24.20
2018-07-23T20:30:31.137Z,24.00
2018-07-23T20:33:01.061Z,23.90
2018-07-23T20:35:31.282Z,23.70
2018-07-23T20:38:01.405Z,23.60
2018-07-23T20:40:31.855Z,23.50
2018-07-23T20:43:02.221Z,23.40
2018-07-23T20:45:42.105Z,23.30
2018-07-23T20:48:12.589Z,23.20
2018-07-23T20:50:43.512Z,23.10
2018-07-23T20:53:13.785Z,23.00
2018-07-23T20:55:45.894Z,23.00
2018-07-23T20:58:16.468Z,22.90
2018-07-23T21:00:47.132Z,23.00
2018-07-23T21:03:17.687Z,23.00
2018-07-23T21:05:48.201Z,22.90
2018-07-23T21:10:48.977Z,22.60
2018-07-23T21:13:19.126Z,22.40
2018-07-23T21:15:50.606Z,22.30
2018-07-23T21:18:27.905Z,22.20
2018-07-23T21:20:58.824Z,22.10
2018-07-23T21:23:29.815Z,22.00
2018-07-23T21:26:04.277Z,21.90
2018-07-23T21:28:34.946Z,21.80
2018-07-23T21:31:05.922Z,21.70
2018-07-23T21:33:35.994Z,21.70
2018-07-23T21:36:09.007Z,21.70
2018-07-23T21:38:40.116Z,21.50
2018-07-23T21:41:10.882Z,21.50
2018-07-23T21:43:41.856Z,21.40
2018-07-23T21:46:12.242Z,21.30
2018-07-23T21:48:43.267Z,21.30
2018-07-23T21:51:13.508Z,21.10
2018-07-23T21:53:44.057Z,21.10
2018-07-23T21:56:16.984Z,21.00
2018-07-23T21:58:48.161Z,21.10
2018-07-23T22:01:18.538Z,21.10
2018-07-23T22:03:52.205Z,21.10
2018-07-23T22:06:23.923Z,21.00
2018-07-23T22:08:56.211Z,20.90
2018-07-23T22:11:26.663Z,20.90
2018-07-23T22:13:57.200Z,20.80
2018-07-23T22:16:27.816Z,20.70
2018-07-23T22:19:02.007Z,20.70
2018-07-23T22:21:33.335Z,20.60
2018-07-23T22:24:03.653Z,20.70
2018-07-23T22:26:35.173Z,20.60
2018-07-23T22:29:06.652Z,20.40
2018-07-23T22:31:38.138Z,20.50
2018-07-23T22:34:08.488Z,20.70
2018-07-23T22:36:39.768Z,20.70
2018-07-23T22:39:12.054Z,20.80
2018-07-23T22:41:42.145Z,20.70
2018-07-23T22:44:12.571Z,20.50
2018-07-23T22:46:43.263Z,20.50
2018-07-23T22:49:13.619Z,20.40
2018-07-23T22:51:43.993Z,20.20
2018-07-23T22:54:14.308Z,20.10
2018-07-23T22:56:45.152Z,20.00
2018-07-23T22:59:16.784Z,19.90
2018-07-23T23:01:47.603Z,19.80
2018-07-23T23:04:18.087Z,19.80
2018-07-23T23:06:48.821Z,19.80
2018-07-23T23:09:19.174Z,19.60
2018-07-23T23:11:49.444Z,19.60
2018-07-23T23:14:19.837Z,19.50
2018-07-23T23:16:50.201Z,19.50
2018-07-23T23:19:20.980Z,19.40
2018-07-23T23:21:51.681Z,19.30
2018-07-23T23:24:22.482Z,19.20
2018-07-23T23:26:53.212Z,19.10
2018-07-23T23:29:24.021Z,19.10
2018-07-23T23:31:55.147Z,19.00
2018-07-23T23:34:26.111Z,19.00
2018-07-23T23:36:57.162Z,19.10
2018-07-23T23:39:27.683Z,19.20
2018-07-23T23:41:59.028Z,19.20
2018-07-23T23:44:38.515Z,19.10
2018-07-23T23:47:09.776Z,19.00
2018-07-23T23:49:40.720Z,18.90
2018-07-23T23:52:11.799Z,18.80
2018-07-23T23:54:42.703Z,18.80
2018-07-23T23:57:13.068Z,18.70
2018-07-23T23:59:44.559Z,18.70
